createdAt,value
2023-03-22T00:04:16.690Z,74030.88
2023-03-22T00:09:18.647Z,74033.44
2023-03-22T00:14:20.797Z,74034.50
2023-03-22T00:19:24.171Z,74034.31
2023-03-22T00:24:26.106Z,74033.78
2023-03-22T00:29:28.062Z,74032.63
2023-03-22T00:34:32.823Z,74032.34
2023-03-22T00:39:34.790Z,74031.63
2023-03-22T00:44:37.312Z,74030.91
2023-03-22T00:49:41.152Z,74028.16
2023-03-22T00:54:43.154Z,74024.13
2023-03-22T00:59:45.307Z,74018.47
2023-03-22T01:04:49.866Z,74011.00
2023-03-22T01:09:52.228Z,74003.56
2023-03-22T01:14:54.183Z,73995.69
2023-03-22T01:19:57.505Z,73987.13
2023-03-22T01:24:59.445Z,73979.28
2023-03-22T01:30:01.676Z,73970.34
2023-03-22T01:35:06.452Z,73963.56
2023-03-22T01:40:11.329Z,73956.38
2023-03-22T01:45:37.144Z,73947.16
2023-03-22T01:50:44.568Z,73940.19
2023-03-22T01:55:47.059Z,73936.34
2023-03-22T02:00:52.045Z,73936.34
2023-03-22T02:05:56.622Z,73936.34
2023-03-22T02:10:59.334Z,73926.78
2023-03-22T02:16:12.805Z,73926.78
2023-03-22T02:21:42.355Z,73926.78
2023-03-22T02:27:06.976Z,73926.78
2023-03-22T02:32:41.039Z,73926.78
2023-03-22T02:38:28.798Z,73909.75
2023-03-22T02:43:38.641Z,73892.56
2023-03-22T02:48:44.360Z,73892.56
2023-03-22T02:53:52.103Z,73892.56
2023-03-22T02:58:59.490Z,73892.56
2023-03-22T03:04:04.765Z,73892.56
2023-03-22T03:09:08.257Z,75948.44
2023-03-22T03:14:21.874Z,73892.56
2023-03-22T03:19:32.346Z,70918.97
2023-03-22T03:24:45.658Z,70918.97
2023-03-22T03:29:54.810Z,73871.78
2023-03-22T03:35:01.389Z,73852.28
2023-03-22T03:40:09.754Z,73833.47
2023-03-22T03:45:14.364Z,73816.19
2023-03-22T03:50:16.670Z,73816.19
2023-03-22T03:55:19.438Z,73816.19
2023-03-22T04:00:23.206Z,73816.19
2023-03-22T04:05:25.395Z,73816.19
2023-03-22T04:10:27.408Z,73806.28
2023-03-22T04:15:30.805Z,70918.97
2023-03-22T04:20:32.751Z,70918.97
2023-03-22T04:25:37.864Z,70918.97
2023-03-22T04:30:41.441Z,70918.97
2023-03-22T04:40:31.717Z,96618.75
2023-03-22T04:45:34.966Z,96609.50
2023-03-22T04:50:38.394Z,96607.97
2023-03-22T04:55:42.950Z,96607.09
2023-03-22T05:00:44.992Z,96606.97
2023-03-22T05:05:51.247Z,96606.88
2023-03-22T05:10:56.025Z,96605.44
2023-03-22T05:15:57.997Z,96608.44
2023-03-22T05:21:06.623Z,96598.88
2023-03-22T05:26:10.895Z,96606.16
2023-03-22T05:31:14.580Z,96611.09
2023-03-22T05:36:18.116Z,96607.16
2023-03-22T05:41:21.354Z,96611.06
2023-03-22T05:46:23.387Z,96612.34
2023-03-22T05:51:25.569Z,96607.19
2023-03-22T05:56:28.890Z,96610.41
2023-03-22T06:01:30.823Z,96611.66
2023-03-22T06:06:33.163Z,96612.97
2023-03-22T06:11:36.528Z,96608.69
2023-03-22T06:16:38.582Z,96611.66
2023-03-22T06:21:40.652Z,96615.31
2023-03-22T06:26:44.157Z,96611.34
2023-03-22T06:31:47.500Z,96617.81
2023-03-22T06:36:49.468Z,96618.88
2023-03-22T06:41:52.785Z,96614.50
2023-03-22T06:46:54.902Z,96622.88
2023-03-22T06:51:56.988Z,96623.56
2023-03-22T06:57:00.362Z,96621.91
2023-03-22T07:02:02.321Z,96624.94
2023-03-22T07:07:04.421Z,96628.75
2023-03-22T07:12:07.893Z,96628.00
2023-03-22T07:17:12.334Z,96630.56
2023-03-22T07:22:14.365Z,96634.28
2023-03-22T07:27:18.165Z,96633.75
2023-03-22T07:32:20.618Z,96632.06
2023-03-22T07:37:24.860Z,96630.72
2023-03-22T07:42:28.136Z,96620.53
2023-03-22T07:47:40.419Z,96615.25
2023-03-22T07:52:44.164Z,96616.13
2023-03-22T07:57:47.505Z,96607.53
2023-03-22T08:02:49.488Z,96621.19
2023-03-22T08:07:52.410Z,96617.44
2023-03-22T08:12:55.712Z,96608.59
2023-03-22T08:17:58.226Z,96613.66
2023-03-22T08:23:00.995Z,96612.66
2023-03-22T08:28:04.328Z,96610.09
2023-03-22T08:33:06.559Z,96617.19
2023-03-22T08:38:08.838Z,96613.41
2023-03-22T08:43:12.201Z,96614.34
2023-03-22T08:48:14.344Z,96620.22
2023-03-22T08:53:16.640Z,96623.97
2023-03-22T08:58:20.083Z,96623.50
2023-03-22T09:03:23.995Z,96623.00
2023-03-22T09:08:26.123Z,96617.84
2023-03-22T09:13:31.162Z,96621.22
2023-03-22T09:18:33.168Z,96609.31
2023-03-22T09:23:36.435Z,96621.59
2023-03-22T09:28:39.811Z,96614.13
2023-03-22T09:33:42.137Z,96613.94
2023-03-22T09:38:45.321Z,96601.28
2023-03-22T09:43:51.720Z,96611.63
2023-03-22T09:48:53.751Z,96603.03
2023-03-22T09:53:55.828Z,96587.84
2023-03-22T09:59:06.522Z,96599.25
2023-03-22T10:04:29.748Z,96597.97
2023-03-22T10:09:41.992Z,96600.75
2023-03-22T10:14:50.176Z,96598.50
2023-03-22T10:19:55.975Z,96581.75
2023-03-22T10:25:00.034Z,96581.16
2023-03-22T10:30:09.318Z,96572.09
2023-03-22T10:35:13.980Z,96580.19
2023-03-22T10:40:20.148Z,96569.06
2023-03-22T10:45:24.635Z,96564.31
2023-03-22T10:50:31.915Z,96563.34
2023-03-22T10:55:39.428Z,96555.81
2023-03-22T11:00:47.036Z,96552.63
2023-03-22T11:05:58.490Z,96556.97
2023-03-22T11:11:01.022Z,96549.06
2023-03-22T11:16:04.924Z,96549.63
2023-03-22T11:21:10.915Z,96542.19
2023-03-22T11:26:14.680Z,96536.91
2023-03-22T11:31:20.495Z,96531.06
2023-03-22T11:36:22.682Z,96538.06
2023-03-22T11:41:27.062Z,96536.81
2023-03-22T11:46:31.585Z,96528.50
2023-03-22T11:51:36.056Z,96530.78
2023-03-22T11:56:42.902Z,96530.78
2023-03-22T12:01:51.519Z,96523.00
2023-03-22T12:06:56.102Z,96523.13
2023-03-22T12:12:00.904Z,96524.00
2023-03-22T12:17:10.520Z,96516.91
2023-03-22T12:22:16.048Z,96515.25
2023-03-22T12:27:23.712Z,96504.25
2023-03-22T12:32:30.910Z,96503.13
2023-03-22T12:37:35.692Z,96497.91
2023-03-22T12:42:50.340Z,96495.28
2023-03-22T12:48:03.863Z,96494.81
2023-03-22T12:53:06.706Z,96500.53
2023-03-22T12:58:10.636Z,96488.97
2023-03-22T13:03:26.773Z,96495.88
2023-03-22T13:09:04.538Z,96485.81
2023-03-22T13:14:06.610Z,96490.72
2023-03-22T13:19:28.737Z,96484.59
2023-03-22T13:24:32.565Z,96472.22
2023-03-22T13:29:37.975Z,96463.84
2023-03-22T13:34:46.489Z,96453.91
2023-03-22T13:39:51.787Z,96461.19
2023-03-22T13:44:58.551Z,96452.41
2023-03-22T13:50:12.139Z,96444.22
2023-03-22T13:55:31.085Z,96438.53
2023-03-22T14:00:38.834Z,96438.22
2023-03-22T14:05:45.919Z,96438.09
2023-03-22T14:10:52.791Z,96429.28
2023-03-22T14:15:58.922Z,96427.47
2023-03-22T14:21:06.846Z,96426.50
